Wolf 59 — CGBP — position and weather

sailwx.info

Track history (hours):
 
Tides and Currents Weather Stations Pressure Air Temp Water Temp Dewpoint Dewpoint Depression Visibility Wind Speed Wind Dir Waves Ship Positions

Wolf 59

Last reported at 2015-Jan-30 17:33 UTC. Time now 2015-Jan-30 21:35 UTC.
Position N 48°25' W 123°26'.

Length 33 m; draft 2.6 m.

Type: Military. MMSI: 316011515.

Date/timePositionNaut miles runAvg speedWind from/ knotsBaromVisibWave heightAir tempDewpointWater temp
2015-Jan-30 17:33N 48°25' W 123°26'1211.7
2015-Jan-30 16:33N 48°33' W 123°13'1210.0
2015-Jan-30 15:22N 48°45' W 123°14'0 0.0
2015-Jan-30 14:29N 48°45' W 123°14'0 0.0
2015-Jan-30 13:30N 48°45' W 123°14'0 0.0
2015-Jan-30 12:33N 48°45' W 123°14'0 0.0
2015-Jan-30 11:32N 48°45' W 123°14'0 0.0
2015-Jan-30 10:33N 48°45' W 123°14'0 0.0
2015-Jan-30 09:28N 48°45' W 123°14'0 0.0
2015-Jan-30 08:29N 48°45' W 123°14'0 0.0
2015-Jan-30 07:31N 48°45' W 123°14'0 0.0
2015-Jan-30 06:33N 48°45' W 123°14'0 0.0
2015-Jan-30 05:31N 48°45' W 123°14'0 0.0
2015-Jan-30 04:29N 48°45' W 123°14'0 0.0
2015-Jan-30 03:31N 48°45' W 123°14'0 0.0
2015-Jan-30 02:33N 48°45' W 123°14'0 0.0
2015-Jan-30 01:33N 48°45' W 123°14'0 0.0
2015-Jan-30 00:33N 48°45' W 123°14'2 1.3
2015-Jan-29 23:25N 48°46' W 123°12'8 4.3
2015-Jan-29 21:31N 48°39' W 123°19'2 1.8
2015-Jan-29 20:31N 48°38' W 123°21'7 3.2
2015-Jan-29 18:26N 48°38' W 123°31'7 5.9
2015-Jan-29 17:19N 48°44' W 123°25'6 6.7
2015-Jan-29 16:27N 48°49' W 123°26'3 1.0
2015-Jan-29 13:24N 48°51' W 123°30'0 0.0
2015-Jan-29 12:33N 48°51' W 123°30'0 0.0
2015-Jan-29 11:30N 48°51' W 123°30'6 0.5
2015-Jan-28 23:18N 48°48' W 123°22'5 6.8
2015-Jan-28 22:31N 48°43' W 123°22'4 4.2
2015-Jan-28 21:32N 48°39' W 123°18'2 2.4
2015-Jan-28 20:31N 48°38' W 123°21'7 7.4
2015-Jan-28 19:31N 48°45' W 123°23'6 6.6
2015-Jan-28 18:33N 48°47' W 123°13'5 4.4
2015-Jan-28 17:20N 48°50' W 123°20'7 6.9
2015-Jan-28 16:22N 48°51' W 123°30'0 0.0
2015-Jan-28 15:33N 48°51' W 123°30'0 0.0
2015-Jan-28 14:33N 48°51' W 123°30'0 0.0
2015-Jan-28 13:33N 48°51' W 123°30'0 0.0
2015-Jan-28 12:33N 48°51' W 123°30'0 0.0
2015-Jan-28 11:33N 48°51' W 123°30'0 0.0
2015-Jan-28 10:33N 48°51' W 123°30'0 0.0
2015-Jan-28 09:33N 48°51' W 123°30'0 0.0
2015-Jan-28 08:33N 48°51' W 123°30'0 0.0
2015-Jan-28 07:33N 48°51' W 123°30'0 0.0
2015-Jan-28 06:33N 48°51' W 123°30'0 0.0
2015-Jan-28 05:33N 48°51' W 123°30'0 0.0
2015-Jan-28 04:33N 48°51' W 123°30'0 0.0
2015-Jan-28 03:33N 48°51' W 123°30'0 0.0
2015-Jan-28 02:33N 48°51' W 123°30'0 0.0
2015-Jan-28 01:33N 48°51' W 123°30'0 0.0
2015-Jan-28 00:33N 48°51' W 123°30'5 4.3
2015-Jan-27 23:28N 48°49' W 123°24'5 5.1
2015-Jan-27 22:32N 48°53' W 123°27'7 6.7
2015-Jan-27 21:33N 48°54' W 123°37'3 2.8
2015-Jan-27 20:33N 48°56' W 123°41'7 6.9
2015-Jan-27 19:34N 49°02' W 123°44'6 5.5
2015-Jan-27 18:33N 49°00' W 123°36'1715.7
2015-Jan-27 17:29N 49°17' W 123°33'7 0.6
2015-Jan-27 06:15N 49°24' W 123°30'2 0.3
2015-Jan-26 23:33N 49°25' W 123°28'8 7.7
2015-Jan-26 22:33N 49°30' W 123°18'8 8.2
2015-Jan-26 21:33N 49°21' W 123°18'8 8.0
2015-Jan-26 20:33N 49°18' W 123°07'0 0.0
2015-Jan-26 19:33N 49°18' W 123°07'0 0.2
2015-Jan-26 18:34N 49°18' W 123°07'1313.0
2015-Jan-26 17:33N 49°17' W 123°27'1816.6
2015-Jan-26 16:29N 49°12' W 123°53'3 2.8
2015-Jan-26 15:31N 49°10' W 123°56'0 0.0
2015-Jan-26 01:07N 49°10' W 123°56'0 0.0
2015-Jan-26 00:31N 49°10' W 123°56'0 0.0
2015-Jan-25 23:25N 49°10' W 123°56'0 0.0
2015-Jan-25 22:31N 49°10' W 123°56'0 0.0
2015-Jan-25 21:25N 49°10' W 123°56'0 0.0
2015-Jan-25 20:31N 49°10' W 123°56'0 0.0
2015-Jan-25 19:31N 49°10' W 123°56'0 0.0
2015-Jan-25 18:19N 49°10' W 123°56'0 0.0
2015-Jan-25 16:18N 49°10' W 123°56'0 0.0
2015-Jan-24 07:26N 49°10' W 123°56'0 0.0
2015-Jan-24 02:05N 49°10' W 123°56'2 1.1
2015-Jan-24 00:31N 49°11' W 123°54'9 9.1
2015-Jan-23 23:29N 49°16' W 124°06'2 1.9
2015-Jan-23 22:32N 49°17' W 124°04'1 0.9
2015-Jan-23 21:33N 49°17' W 124°06'1 1.3
2015-Jan-23 20:31N 49°18' W 124°06'3 2.7
2015-Jan-23 19:33N 49°16' W 124°08'1 0.8
2015-Jan-23 18:32N 49°16' W 124°09'2 2.1
2015-Jan-23 17:31N 49°16' W 124°06'9 9.1
2015-Jan-23 16:33N 49°11' W 123°54'2 1.5
2015-Jan-23 15:25N 49°10' W 123°56'0 0.0
2015-Jan-23 14:19N 49°10' W 123°56'0 0.0
2015-Jan-23 12:05N 49°10' W 123°56'0 0.0
2015-Jan-23 11:22N 49°10' W 123°56'0 0.0
2015-Jan-22 23:05N 49°10' W 123°56'2 3.6
2015-Jan-22 22:34N 49°11' W 123°54'1414.0
2015-Jan-22 21:33N 49°04' W 123°35'3 3.3
2015-Jan-22 20:33N 49°02' W 123°39'9 9.5
2015-Jan-22 19:33N 48°55' W 123°30'9 9.1
2015-Jan-22 18:32N 48°48' W 123°20'1010.5
2015-Jan-22 17:34N 48°38' W 123°17'1111.0
2015-Jan-22 16:33N 48°34' W 123°01'2 2.0
2015-Jan-22 15:31N 48°32' W 123°01'0 0.0
2015-Jan-22 14:33N 48°32' W 123°01'0 0.0
2015-Jan-22 13:33N 48°32' W 123°01'0 0.0
2015-Jan-22 12:33N 48°32' W 123°01'0 0.0
2015-Jan-22 11:33N 48°32' W 123°01'0 0.0
2015-Jan-22 10:33N 48°32' W 123°01'0 0.0
2015-Jan-22 09:32N 48°32' W 123°01'0 0.0
2015-Jan-22 08:32N 48°32' W 123°01'0 0.0
2015-Jan-22 07:32N 48°32' W 123°01'0 0.0
2015-Jan-22 06:32N 48°32' W 123°01'0 0.0
2015-Jan-22 05:32N 48°32' W 123°01'0 0.0
2015-Jan-22 04:32N 48°32' W 123°01'0 0.0
2015-Jan-22 03:32N 48°32' W 123°01'0 0.0
2015-Jan-22 02:32N 48°32' W 123°01'0 0.0
2015-Jan-22 01:32N 48°32' W 123°01'0 0.0
2015-Jan-22 00:29N 48°32' W 123°01'0 0.3
2015-Jan-21 23:32N 48°33' W 123°01'5 7.0
2015-Jan-21 22:47N 48°35' W 122°53'0 8.0
2015-Jan-21 22:44N 48°35' W 122°53'1 4.7
2015-Jan-21 22:32N 48°34' W 122°52'7 7.3
2015-Jan-21 21:32N 48°32' W 122°41'7 7.4
2015-Jan-21 20:32N 48°39' W 122°40'4 3.9
2015-Jan-21 19:26N 48°38' W 122°34'7 7.4
2015-Jan-21 18:32N 48°31' W 122°37'7 7.2
2015-Jan-21 17:32N 48°32' W 122°48'6 6.2
2015-Jan-21 16:32N 48°32' W 122°57'3 2.5
2015-Jan-21 15:32N 48°32' W 123°01'0 0.0
2015-Jan-21 14:33N 48°32' W 123°01'0 0.0
2015-Jan-21 13:33N 48°32' W 123°01'0 0.0
2015-Jan-21 12:33N 48°32' W 123°01'0 0.0
2015-Jan-21 11:33N 48°32' W 123°01'0 0.0
2015-Jan-21 10:33N 48°32' W 123°01'0 0.0
2015-Jan-21 09:33N 48°32' W 123°01'0 0.0
2015-Jan-21 08:33N 48°32' W 123°01'0 0.0
2015-Jan-21 07:33N 48°32' W 123°01'0 0.0
2015-Jan-21 06:33N 48°32' W 123°01'0 0.0
2015-Jan-21 05:33N 48°32' W 123°01'0 0.0
2015-Jan-21 04:33N 48°32' W 123°01'0 0.0
2015-Jan-21 03:33N 48°32' W 123°01'0 0.0
2015-Jan-21 02:33N 48°32' W 123°01'0 0.0
2015-Jan-21 01:33N 48°32' W 123°01'0 0.0
2015-Jan-21 00:33N 48°32' W 123°01'1 1.0
2015-Jan-20 23:34N 48°33' W 123°00'7 6.7
2015-Jan-20 22:33N 48°38' W 123°08'5 4.6
2015-Jan-20 21:33N 48°36' W 123°14'6 6.4
2015-Jan-20 20:33N 48°41' W 123°21'8 7.6
2015-Jan-20 19:33N 48°43' W 123°32'9 8.6
2015-Jan-20 18:33N 48°51' W 123°35'  
Track history (hours):
 
Tides and Currents Weather Stations Pressure Air Temp Water Temp Dewpoint Dewpoint Depression Visibility Wind Speed Wind Dir Waves Ship Positions

Wolf 59

Last reported at 2015-Jan-30 17:33 UTC. Time now 2015-Jan-30 21:35 UTC.
Position N 48°25' W 123°26'.

Length 33 m; draft 2.6 m.

Type: Military. MMSI: 316011515.

Date/timePositionNaut miles runAvg speedWind from/ knotsBaromVisibWave heightAir tempDewpointWater temp
2015-Jan-30 17:33N 48°25' W 123°26'1211.7
2015-Jan-30 16:33N 48°33' W 123°13'1210.0
2015-Jan-30 15:22N 48°45' W 123°14'0 0.0
2015-Jan-30 14:29N 48°45' W 123°14'0 0.0
2015-Jan-30 13:30N 48°45' W 123°14'0 0.0
2015-Jan-30 12:33N 48°45' W 123°14'0 0.0
2015-Jan-30 11:32N 48°45' W 123°14'0 0.0
2015-Jan-30 10:33N 48°45' W 123°14'0 0.0
2015-Jan-30 09:28N 48°45' W 123°14'0 0.0
2015-Jan-30 08:29N 48°45' W 123°14'0 0.0
2015-Jan-30 07:31N 48°45' W 123°14'0 0.0
2015-Jan-30 06:33N 48°45' W 123°14'0 0.0
2015-Jan-30 05:31N 48°45' W 123°14'0 0.0
2015-Jan-30 04:29N 48°45' W 123°14'0 0.0
2015-Jan-30 03:31N 48°45' W 123°14'0 0.0
2015-Jan-30 02:33N 48°45' W 123°14'0 0.0
2015-Jan-30 01:33N 48°45' W 123°14'0 0.0
2015-Jan-30 00:33N 48°45' W 123°14'2 1.3
2015-Jan-29 23:25N 48°46' W 123°12'8 4.3
2015-Jan-29 21:31N 48°39' W 123°19'2 1.8
2015-Jan-29 20:31N 48°38' W 123°21'7 3.2
2015-Jan-29 18:26N 48°38' W 123°31'7 5.9
2015-Jan-29 17:19N 48°44' W 123°25'6 6.7
2015-Jan-29 16:27N 48°49' W 123°26'3 1.0
2015-Jan-29 13:24N 48°51' W 123°30'0 0.0
2015-Jan-29 12:33N 48°51' W 123°30'0 0.0
2015-Jan-29 11:30N 48°51' W 123°30'6 0.5
2015-Jan-28 23:18N 48°48' W 123°22'5 6.8
2015-Jan-28 22:31N 48°43' W 123°22'4 4.2
2015-Jan-28 21:32N 48°39' W 123°18'2 2.4
2015-Jan-28 20:31N 48°38' W 123°21'7 7.4
2015-Jan-28 19:31N 48°45' W 123°23'6 6.6
2015-Jan-28 18:33N 48°47' W 123°13'5 4.4
2015-Jan-28 17:20N 48°50' W 123°20'7 6.9
2015-Jan-28 16:22N 48°51' W 123°30'0 0.0
2015-Jan-28 15:33N 48°51' W 123°30'0 0.0
2015-Jan-28 14:33N 48°51' W 123°30'0 0.0
2015-Jan-28 13:33N 48°51' W 123°30'0 0.0
2015-Jan-28 12:33N 48°51' W 123°30'0 0.0
2015-Jan-28 11:33N 48°51' W 123°30'0 0.0
2015-Jan-28 10:33N 48°51' W 123°30'0 0.0
2015-Jan-28 09:33N 48°51' W 123°30'0 0.0
2015-Jan-28 08:33N 48°51' W 123°30'0 0.0
2015-Jan-28 07:33N 48°51' W 123°30'0 0.0
2015-Jan-28 06:33N 48°51' W 123°30'0 0.0
2015-Jan-28 05:33N 48°51' W 123°30'0 0.0
2015-Jan-28 04:33N 48°51' W 123°30'0 0.0
2015-Jan-28 03:33N 48°51' W 123°30'0 0.0
2015-Jan-28 02:33N 48°51' W 123°30'0 0.0
2015-Jan-28 01:33N 48°51' W 123°30'0 0.0
2015-Jan-28 00:33N 48°51' W 123°30'5 4.3
2015-Jan-27 23:28N 48°49' W 123°24'5 5.1
2015-Jan-27 22:32N 48°53' W 123°27'7 6.7
2015-Jan-27 21:33N 48°54' W 123°37'3 2.8
2015-Jan-27 20:33N 48°56' W 123°41'7 6.9
2015-Jan-27 19:34N 49°02' W 123°44'6 5.5
2015-Jan-27 18:33N 49°00' W 123°36'1715.7
2015-Jan-27 17:29N 49°17' W 123°33'7 0.6
2015-Jan-27 06:15N 49°24' W 123°30'2 0.3
2015-Jan-26 23:33N 49°25' W 123°28'8 7.7
2015-Jan-26 22:33N 49°30' W 123°18'8 8.2
2015-Jan-26 21:33N 49°21' W 123°18'8 8.0
2015-Jan-26 20:33N 49°18' W 123°07'0 0.0
2015-Jan-26 19:33N 49°18' W 123°07'0 0.2
2015-Jan-26 18:34N 49°18' W 123°07'1313.0
2015-Jan-26 17:33N 49°17' W 123°27'1816.6
2015-Jan-26 16:29N 49°12' W 123°53'3 2.8
2015-Jan-26 15:31N 49°10' W 123°56'0 0.0
2015-Jan-26 01:07N 49°10' W 123°56'0 0.0
2015-Jan-26 00:31N 49°10' W 123°56'0 0.0
2015-Jan-25 23:25N 49°10' W 123°56'0 0.0
2015-Jan-25 22:31N 49°10' W 123°56'0 0.0
2015-Jan-25 21:25N 49°10' W 123°56'0 0.0
2015-Jan-25 20:31N 49°10' W 123°56'0 0.0
2015-Jan-25 19:31N 49°10' W 123°56'0 0.0
2015-Jan-25 18:19N 49°10' W 123°56'0 0.0
2015-Jan-25 16:18N 49°10' W 123°56'0 0.0
2015-Jan-24 07:26N 49°10' W 123°56'0 0.0
2015-Jan-24 02:05N 49°10' W 123°56'2 1.1
2015-Jan-24 00:31N 49°11' W 123°54'9 9.1
2015-Jan-23 23:29N 49°16' W 124°06'2 1.9
2015-Jan-23 22:32N 49°17' W 124°04'1 0.9
2015-Jan-23 21:33N 49°17' W 124°06'1 1.3
2015-Jan-23 20:31N 49°18' W 124°06'3 2.7
2015-Jan-23 19:33N 49°16' W 124°08'1 0.8
2015-Jan-23 18:32N 49°16' W 124°09'2 2.1
2015-Jan-23 17:31N 49°16' W 124°06'9 9.1
2015-Jan-23 16:33N 49°11' W 123°54'2 1.5
2015-Jan-23 15:25N 49°10' W 123°56'0 0.0
2015-Jan-23 14:19N 49°10' W 123°56'0 0.0
2015-Jan-23 12:05N 49°10' W 123°56'0 0.0
2015-Jan-23 11:22N 49°10' W 123°56'0 0.0
2015-Jan-22 23:05N 49°10' W 123°56'2 3.6
2015-Jan-22 22:34N 49°11' W 123°54'1414.0
2015-Jan-22 21:33N 49°04' W 123°35'3 3.3
2015-Jan-22 20:33N 49°02' W 123°39'9 9.5
2015-Jan-22 19:33N 48°55' W 123°30'9 9.1
2015-Jan-22 18:32N 48°48' W 123°20'1010.5
2015-Jan-22 17:34N 48°38' W 123°17'1111.0
2015-Jan-22 16:33N 48°34' W 123°01'2 2.0
2015-Jan-22 15:31N 48°32' W 123°01'0 0.0
2015-Jan-22 14:33N 48°32' W 123°01'0 0.0
2015-Jan-22 13:33N 48°32' W 123°01'0 0.0
2015-Jan-22 12:33N 48°32' W 123°01'0 0.0
2015-Jan-22 11:33N 48°32' W 123°01'0 0.0
2015-Jan-22 10:33N 48°32' W 123°01'0 0.0
2015-Jan-22 09:32N 48°32' W 123°01'0 0.0
2015-Jan-22 08:32N 48°32' W 123°01'0 0.0
2015-Jan-22 07:32N 48°32' W 123°01'0 0.0
2015-Jan-22 06:32N 48°32' W 123°01'0 0.0
2015-Jan-22 05:32N 48°32' W 123°01'0 0.0
2015-Jan-22 04:32N 48°32' W 123°01'0 0.0
2015-Jan-22 03:32N 48°32' W 123°01'0 0.0
2015-Jan-22 02:32N 48°32' W 123°01'0 0.0
2015-Jan-22 01:32N 48°32' W 123°01'0 0.0
2015-Jan-22 00:29N 48°32' W 123°01'0 0.3
2015-Jan-21 23:32N 48°33' W 123°01'5 7.0
2015-Jan-21 22:47N 48°35' W 122°53'0 8.0
2015-Jan-21 22:44N 48°35' W 122°53'1 4.7
2015-Jan-21 22:32N 48°34' W 122°52'7 7.3
2015-Jan-21 21:32N 48°32' W 122°41'7 7.4
2015-Jan-21 20:32N 48°39' W 122°40'4 3.9
2015-Jan-21 19:26N 48°38' W 122°34'7 7.4
2015-Jan-21 18:32N 48°31' W 122°37'7 7.2
2015-Jan-21 17:32N 48°32' W 122°48'6 6.2
2015-Jan-21 16:32N 48°32' W 122°57'3 2.5
2015-Jan-21 15:32N 48°32' W 123°01'0 0.0
2015-Jan-21 14:33N 48°32' W 123°01'0 0.0
2015-Jan-21 13:33N 48°32' W 123°01'0 0.0
2015-Jan-21 12:33N 48°32' W 123°01'0 0.0
2015-Jan-21 11:33N 48°32' W 123°01'0 0.0
2015-Jan-21 10:33N 48°32' W 123°01'0 0.0
2015-Jan-21 09:33N 48°32' W 123°01'0 0.0
2015-Jan-21 08:33N 48°32' W 123°01'0 0.0
2015-Jan-21 07:33N 48°32' W 123°01'0 0.0
2015-Jan-21 06:33N 48°32' W 123°01'0 0.0
2015-Jan-21 05:33N 48°32' W 123°01'0 0.0
2015-Jan-21 04:33N 48°32' W 123°01'0 0.0
2015-Jan-21 03:33N 48°32' W 123°01'0 0.0
2015-Jan-21 02:33N 48°32' W 123°01'0 0.0
2015-Jan-21 01:33N 48°32' W 123°01'0 0.0
2015-Jan-21 00:33N 48°32' W 123°01'1 1.0
2015-Jan-20 23:34N 48°33' W 123°00'7 6.7
2015-Jan-20 22:33N 48°38' W 123°08'5 4.6
2015-Jan-20 21:33N 48°36' W 123°14'6 6.4
2015-Jan-20 20:33N 48°41' W 123°21'8 7.6
2015-Jan-20 19:33N 48°43' W 123°32'9 8.6
2015-Jan-20 18:33N 48°51' W 123°35'  

Dump ship's entire track history